createdAt,value
2023-04-25T00:00:50.555Z,7.90
2023-04-25T00:03:43.297Z,7.90
2023-04-25T00:06:34.845Z,7.90
2023-04-25T00:09:30.702Z,7.90
2023-04-25T00:12:29.980Z,7.90
2023-04-25T00:15:33.872Z,8.00
2023-04-25T00:18:30.830Z,7.90
2023-04-25T00:21:53.671Z,7.90
2023-04-25T00:24:51.169Z,7.90
2023-04-25T00:28:07.707Z,7.90
2023-04-25T00:31:21.881Z,7.90
2023-04-25T00:34:37.746Z,7.90
2023-04-25T00:47:48.932Z,7.90
2023-04-25T00:50:55.041Z,7.80
2023-04-25T00:53:50.952Z,7.80
2023-04-25T00:56:53.283Z,7.80
2023-04-25T01:00:01.939Z,7.80
2023-04-25T01:03:07.861Z,7.80
2023-04-25T01:06:14.684Z,7.90
2023-04-25T01:09:11.287Z,7.90
2023-04-25T01:19:30.934Z,8.10
2023-04-25T01:26:11.260Z,8.20
2023-04-25T01:29:22.260Z,8.40
2023-04-25T01:32:28.653Z,8.50
2023-04-25T01:39:30.587Z,8.40
2023-04-25T01:42:50.693Z,8.40
2023-04-25T01:56:29.409Z,8.50
2023-04-25T02:00:04.412Z,8.80
2023-04-25T02:03:34.302Z,8.90
2023-04-25T02:06:49.716Z,8.60
2023-04-25T02:13:07.073Z,8.30
2023-04-25T02:16:33.787Z,8.30
2023-04-25T02:19:37.558Z,8.10
2023-04-25T02:22:40.477Z,8.10
2023-04-25T02:29:15.511Z,8.00
2023-04-25T02:32:09.487Z,7.80
2023-04-25T02:35:32.133Z,7.70
2023-04-25T02:38:36.558Z,7.70
2023-04-25T02:41:56.369Z,7.70
2023-04-25T02:45:19.585Z,7.60
2023-04-25T02:48:22.286Z,7.70
2023-04-25T02:51:23.628Z,7.70
2023-04-25T02:54:48.589Z,7.90
2023-04-25T02:57:36.618Z,8.10
2023-04-25T03:00:50.916Z,8.00
2023-04-25T03:04:09.632Z,7.70
2023-04-25T03:07:22.723Z,7.70
2023-04-25T03:10:27.389Z,7.90
2023-04-25T03:13:28.514Z,8.20
2023-04-25T03:16:31.550Z,8.30
2023-04-25T03:29:22.320Z,8.50
2023-04-25T03:32:18.208Z,8.00
2023-04-25T03:35:33.175Z,7.80
2023-04-25T03:38:34.303Z,7.90
2023-04-25T03:42:27.378Z,8.00
2023-04-25T03:48:46.072Z,8.10
2023-04-25T03:52:13.659Z,8.10
2023-04-25T03:55:16.412Z,7.90
2023-04-25T04:01:52.078Z,7.60
2023-04-25T04:04:56.034Z,7.50
2023-04-25T04:07:48.971Z,7.60
2023-04-25T04:11:00.261Z,7.60
2023-04-25T04:13:55.734Z,7.50
2023-04-25T04:25:14.976Z,7.10
2023-04-25T04:32:39.662Z,7.00
2023-04-25T04:39:34.333Z,6.90
2023-04-25T04:47:15.080Z,7.10
2023-04-25T04:52:09.758Z,7.20
2023-04-25T04:53:50.624Z,7.20
2023-04-25T04:57:21.385Z,7.30
2023-04-25T05:00:47.720Z,7.40
2023-04-25T05:03:41.548Z,7.50
2023-04-25T05:06:30.466Z,7.60
2023-04-25T05:09:20.431Z,7.70
2023-04-25T05:12:08.192Z,7.60
2023-04-25T05:14:59.029Z,7.60
2023-04-25T05:17:51.864Z,7.50
2023-04-25T05:20:49.666Z,7.70
2023-04-25T05:23:47.095Z,8.00
2023-04-25T05:26:42.451Z,8.10
2023-04-25T05:29:43.124Z,7.80
2023-04-25T05:32:38.353Z,8.10
2023-04-25T05:35:29.616Z,8.20
2023-04-25T05:38:37.145Z,8.40
2023-04-25T05:47:49.654Z,9.50
2023-04-25T05:50:39.047Z,10.00
2023-04-25T05:53:41.262Z,10.60
2023-04-25T05:56:38.361Z,11.60
2023-04-25T05:59:36.576Z,12.50
2023-04-25T06:02:33.825Z,11.90
2023-04-25T06:05:22.057Z,12.00
2023-04-25T06:08:11.210Z,11.70
2023-04-25T06:11:00.282Z,11.80
2023-04-25T06:13:55.442Z,11.70
2023-04-25T06:16:48.986Z,12.20
2023-04-25T06:19:37.795Z,12.00
2023-04-25T06:22:45.369Z,12.60
2023-04-25T06:25:35.802Z,11.90
2023-04-25T06:28:26.866Z,12.10
2023-04-25T06:31:17.211Z,12.70
2023-04-25T06:34:10.526Z,13.40
2023-04-25T06:37:04.334Z,14.70
2023-04-25T06:39:55.548Z,15.10
2023-04-25T06:43:12.699Z,14.40
2023-04-25T06:46:09.745Z,12.90
2023-04-25T06:49:00.414Z,13.80
2023-04-25T06:52:00.789Z,14.80
2023-04-25T06:54:49.025Z,17.40
2023-04-25T06:57:39.282Z,19.30
2023-04-25T07:00:29.080Z,18.20
2023-04-25T07:03:17.105Z,16.40
2023-04-25T07:06:05.122Z,14.10
2023-04-25T07:08:52.927Z,13.20
2023-04-25T07:11:41.075Z,13.60
2023-04-25T07:14:29.168Z,12.10
2023-04-25T07:17:18.191Z,12.60
2023-04-25T07:20:07.224Z,12.70
2023-04-25T07:22:56.859Z,11.90
2023-04-25T07:31:41.333Z,16.90
2023-04-25T07:34:44.138Z,18.90
2023-04-25T07:38:00.657Z,19.50
2023-04-25T07:40:57.011Z,18.30
2023-04-25T07:44:04.975Z,18.50
2023-04-25T07:46:52.919Z,17.70
2023-04-25T07:50:35.911Z,17.60
2023-04-25T08:10:27.590Z,17.00
2023-04-25T08:13:27.320Z,17.90
2023-04-25T08:16:15.763Z,18.50
2023-04-25T08:19:23.083Z,17.80
2023-04-25T08:22:13.207Z,18.40
2023-04-25T08:25:11.173Z,18.30
2023-04-25T08:28:26.448Z,18.10
2023-04-25T08:31:45.945Z,17.70
2023-04-25T08:35:01.591Z,18.70
2023-04-25T08:37:57.305Z,20.60
2023-04-25T08:40:54.860Z,16.70
2023-04-25T08:44:01.296Z,17.20
2023-04-25T08:47:44.424Z,15.40
2023-04-25T08:51:21.201Z,16.20
2023-04-25T08:54:37.864Z,19.40
2023-04-25T08:57:30.220Z,19.20
2023-04-25T09:00:23.876Z,16.50
2023-04-25T09:03:15.375Z,15.60
2023-04-25T09:06:32.128Z,16.80
2023-04-25T09:09:24.879Z,18.30
2023-04-25T09:12:24.613Z,16.40
2023-04-25T09:21:55.717Z,16.80
2023-04-25T09:25:08.078Z,18.20
2023-04-25T09:28:07.853Z,18.20
2023-04-25T09:31:13.674Z,18.30
2023-04-25T09:34:04.635Z,17.10
2023-04-25T09:36:56.374Z,15.90
2023-04-25T09:39:48.075Z,16.30
2023-04-25T09:42:36.502Z,17.20
2023-04-25T09:45:26.438Z,17.00
2023-04-25T09:48:48.902Z,16.30
2023-04-25T09:51:55.600Z,16.50
2023-04-25T09:54:47.786Z,17.00
2023-04-25T09:57:42.983Z,15.80
2023-04-25T10:00:31.918Z,14.50
2023-04-25T10:03:32.236Z,14.20
2023-04-25T10:06:22.934Z,14.40
2023-04-25T10:09:11.037Z,14.10
2023-04-25T10:11:59.997Z,13.90
2023-04-25T10:14:48.681Z,14.10
2023-04-25T10:17:36.752Z,13.90
2023-04-25T10:20:32.877Z,12.80
2023-04-25T10:23:21.857Z,12.30
2023-04-25T10:26:13.653Z,12.30
2023-04-25T10:29:05.605Z,12.10
2023-04-25T10:31:53.731Z,11.90
2023-04-25T10:34:48.247Z,11.80
2023-04-25T10:37:38.290Z,11.30
2023-04-25T10:40:27.852Z,11.40
2023-04-25T10:43:45.347Z,11.60
2023-04-25T10:46:35.929Z,11.70
2023-04-25T10:49:35.629Z,11.80
2023-04-25T10:52:29.317Z,12.30
2023-04-25T10:55:16.905Z,12.20
2023-04-25T10:58:05.058Z,12.60
2023-04-25T11:00:57.640Z,12.70
2023-04-25T11:03:46.325Z,12.20
2023-04-25T11:06:34.508Z,11.90
2023-04-25T11:09:25.197Z,11.90
2023-04-25T11:12:13.640Z,11.60
2023-04-25T11:15:05.509Z,11.70
2023-04-25T11:17:54.177Z,11.70
2023-04-25T11:20:44.740Z,11.70
2023-04-25T11:23:32.820Z,12.00
2023-04-25T11:26:21.597Z,12.70
2023-04-25T11:29:09.165Z,14.20
2023-04-25T11:31:59.393Z,16.50
2023-04-25T11:34:55.409Z,16.90
2023-04-25T11:37:44.890Z,15.90
2023-04-25T11:40:35.535Z,15.30
2023-04-25T11:43:27.574Z,14.00
2023-04-25T11:46:17.850Z,13.60
2023-04-25T11:49:06.240Z,13.60
2023-04-25T11:51:54.184Z,12.90
2023-04-25T11:54:42.220Z,12.90
2023-04-25T11:57:36.681Z,13.00
2023-04-25T12:00:28.095Z,12.00
2023-04-25T12:03:25.910Z,11.60
2023-04-25T12:06:23.135Z,11.60
2023-04-25T12:09:16.839Z,11.60
2023-04-25T12:12:08.573Z,11.50
2023-04-25T12:15:00.339Z,11.70
2023-04-25T12:17:58.268Z,11.80
2023-04-25T12:20:48.525Z,11.70
2023-04-25T12:23:49.975Z,11.50
2023-04-25T12:26:52.044Z,11.00
2023-04-25T12:30:04.362Z,11.10
2023-04-25T12:32:52.198Z,11.30
2023-04-25T12:35:41.190Z,11.60
2023-04-25T12:38:32.470Z,12.40
2023-04-25T12:41:20.071Z,12.50
2023-04-25T12:44:07.653Z,13.20
2023-04-25T12:46:56.106Z,14.40
2023-04-25T12:49:49.797Z,15.00
2023-04-25T12:52:40.481Z,16.20
2023-04-25T12:55:28.103Z,17.40
2023-04-25T12:58:22.159Z,15.50
2023-04-25T13:01:19.448Z,14.40
2023-04-25T13:04:07.689Z,13.60
2023-04-25T13:07:12.755Z,12.80
2023-04-25T13:10:00.579Z,12.20
2023-04-25T13:12:48.232Z,12.40
2023-04-25T13:15:38.986Z,11.80
2023-04-25T13:18:29.204Z,11.80
2023-04-25T13:21:21.838Z,11.80
2023-04-25T13:24:09.908Z,12.10
2023-04-25T13:27:00.690Z,12.20
2023-04-25T13:29:48.680Z,12.90
2023-04-25T13:32:39.969Z,12.80
2023-04-25T13:35:29.334Z,12.90
2023-04-25T13:38:17.230Z,13.10
2023-04-25T13:41:04.964Z,12.90
2023-04-25T13:43:53.304Z,13.00
2023-04-25T13:46:46.850Z,13.00
2023-04-25T13:49:36.275Z,13.00
2023-04-25T13:52:30.549Z,13.80
2023-04-25T13:55:29.480Z,16.00
2023-04-25T13:58:33.184Z,16.20
2023-04-25T14:01:26.694Z,15.30
2023-04-25T14:04:17.573Z,14.70
2023-04-25T14:07:21.723Z,14.00
2023-04-25T14:10:14.813Z,14.70
2023-04-25T14:13:04.688Z,15.10
2023-04-25T14:15:53.461Z,15.10
2023-04-25T14:18:43.684Z,13.90
2023-04-25T14:21:33.642Z,12.60
2023-04-25T14:24:21.581Z,12.70
2023-04-25T14:27:10.269Z,12.70
2023-04-25T14:29:58.608Z,13.00
2023-04-25T14:33:16.317Z,12.70
2023-04-25T14:36:04.804Z,12.20
2023-04-25T14:38:52.700Z,12.20
2023-04-25T14:41:40.638Z,12.20
2023-04-25T14:44:30.622Z,12.10
2023-04-25T14:47:18.648Z,12.50
2023-04-25T14:50:15.875Z,12.00
2023-04-25T14:53:04.367Z,11.60
2023-04-25T14:55:52.038Z,11.60
2023-04-25T14:58:41.392Z,11.60
2023-04-25T15:01:29.828Z,11.60
2023-04-25T15:04:18.656Z,11.80
2023-04-25T15:07:07.911Z,13.50
2023-04-25T15:09:56.989Z,14.90
2023-04-25T15:12:47.731Z,15.20
2023-04-25T15:15:36.027Z,15.00
2023-04-25T15:21:15.877Z,12.80
2023-04-25T15:24:07.116Z,12.50
2023-04-25T15:26:57.540Z,14.60
2023-04-25T15:29:48.350Z,14.60
2023-04-25T15:32:49.353Z,14.20
2023-04-25T15:35:39.906Z,15.00
2023-04-25T15:38:32.851Z,16.70
2023-04-25T15:41:20.677Z,17.30
2023-04-25T15:44:11.765Z,15.70
2023-04-25T15:46:59.597Z,15.70
2023-04-25T15:49:52.404Z,16.80
2023-04-25T15:52:41.438Z,17.70
2023-04-25T15:55:29.793Z,17.70
2023-04-25T15:58:17.256Z,15.70
2023-04-25T16:01:05.577Z,12.80
2023-04-25T16:03:53.858Z,13.20
2023-04-25T16:06:42.586Z,13.80
2023-04-25T16:09:31.876Z,14.30
2023-04-25T16:12:21.138Z,13.90
2023-04-25T16:15:09.558Z,14.60
2023-04-25T16:17:57.198Z,13.70
2023-04-25T16:20:45.229Z,14.00
2023-04-25T16:23:33.450Z,14.80
2023-04-25T16:26:23.926Z,15.40
2023-04-25T16:29:12.936Z,15.50
2023-04-25T16:32:04.539Z,16.00
2023-04-25T16:34:52.586Z,16.00
2023-04-25T16:37:42.977Z,16.90
2023-04-25T16:40:31.246Z,16.60
2023-04-25T16:43:20.673Z,16.30
2023-04-25T16:46:08.930Z,16.40
2023-04-25T16:48:59.677Z,16.40
2023-04-25T16:51:47.864Z,16.50
2023-04-25T16:54:36.371Z,16.30
2023-04-25T16:57:24.035Z,15.90
2023-04-25T17:00:13.833Z,16.90
2023-04-25T17:03:05.453Z,16.80
2023-04-25T17:06:04.585Z,16.80
2023-04-25T17:08:55.454Z,17.20
2023-04-25T17:11:52.936Z,16.70
2023-04-25T17:14:41.138Z,16.40
2023-04-25T17:17:28.942Z,15.10
2023-04-25T17:20:19.506Z,15.30
2023-04-25T17:23:07.115Z,15.60
2023-04-25T17:25:54.919Z,15.90
2023-04-25T17:28:45.051Z,15.70
2023-04-25T17:31:34.011Z,15.20
2023-04-25T17:34:22.224Z,13.90
2023-04-25T17:37:19.004Z,13.60
2023-04-25T17:40:10.818Z,12.60
2023-04-25T17:43:02.088Z,11.90
2023-04-25T17:45:51.437Z,11.40
2023-04-25T17:48:42.366Z,11.40
2023-04-25T17:51:31.636Z,11.00
2023-04-25T17:54:22.264Z,10.90
2023-04-25T17:57:10.282Z,10.80
2023-04-25T17:59:57.944Z,10.80
2023-04-25T18:02:47.586Z,10.70
2023-04-25T18:05:36.049Z,10.50
2023-04-25T18:08:24.263Z,10.40
2023-04-25T18:11:12.360Z,9.90
2023-04-25T18:14:04.089Z,9.90
2023-04-25T18:16:54.390Z,9.90
2023-04-25T18:19:42.306Z,9.80
2023-04-25T18:22:30.884Z,9.90
2023-04-25T18:25:19.017Z,9.70
2023-04-25T18:28:08.668Z,9.60
2023-04-25T18:30:57.125Z,9.40
2023-04-25T18:33:47.722Z,9.30
2023-04-25T18:36:38.928Z,9.20
2023-04-25T18:39:31.628Z,9.10
2023-04-25T18:42:21.356Z,9.10
2023-04-25T18:45:10.246Z,9.00
2023-04-25T18:47:59.398Z,9.00
2023-04-25T18:50:48.660Z,8.90
2023-04-25T18:53:37.443Z,8.80
2023-04-25T19:00:17.528Z,8.80
2023-04-25T19:03:58.971Z,8.60
2023-04-25T19:14:22.872Z,8.40
2023-04-25T19:17:19.317Z,8.40
2023-04-25T19:20:21.384Z,8.30
2023-04-25T19:23:20.939Z,8.30
2023-04-25T19:26:20.371Z,8.20
2023-04-25T19:29:15.307Z,8.10
2023-04-25T19:32:20.209Z,8.10
2023-04-25T19:35:59.681Z,8.10
2023-04-25T19:39:34.210Z,8.00
2023-04-25T19:42:43.022Z,7.90
2023-04-25T19:45:37.398Z,7.90
2023-04-25T19:55:05.450Z,7.80
2023-04-25T19:58:55.166Z,7.70
2023-04-25T20:06:47.414Z,7.50
2023-04-25T20:18:49.488Z,7.40
2023-04-25T20:25:41.598Z,7.30
2023-04-25T20:44:49.330Z,6.70
2023-04-25T20:47:52.128Z,6.70
2023-04-25T20:50:40.177Z,6.60
2023-04-25T20:53:31.286Z,6.60
2023-04-25T20:56:20.931Z,6.60
2023-04-25T20:59:12.765Z,6.60
2023-04-25T21:02:08.345Z,6.60
2023-04-25T21:04:59.262Z,6.60
2023-04-25T21:08:09.961Z,6.50
2023-04-25T21:11:06.859Z,6.40
2023-04-25T21:13:58.988Z,6.30
2023-04-25T21:16:54.801Z,6.40
2023-04-25T21:19:50.547Z,6.40
2023-04-25T21:22:54.618Z,6.50
2023-04-25T21:25:52.032Z,6.50
2023-04-25T21:28:44.304Z,6.60
2023-04-25T21:31:46.905Z,6.60
2023-04-25T21:34:46.440Z,6.50
2023-04-25T21:37:43.349Z,6.60
2023-04-25T21:40:41.012Z,6.60
2023-04-25T21:55:59.189Z,6.30
2023-04-25T21:59:01.411Z,6.30
2023-04-25T22:02:01.806Z,6.20
2023-04-25T22:08:13.891Z,6.00
2023-04-25T22:14:49.119Z,6.20
2023-04-25T22:21:47.336Z,6.30
2023-04-25T22:24:45.375Z,6.50
2023-04-25T22:27:50.872Z,6.20
2023-04-25T22:30:41.358Z,6.20
2023-04-25T22:34:04.193Z,6.30
2023-04-25T22:37:04.551Z,6.40
2023-04-25T22:43:58.266Z,6.20
2023-04-25T22:47:09.458Z,6.30
2023-04-25T22:50:17.668Z,6.30
2023-04-25T22:53:40.532Z,6.30
2023-04-25T22:56:35.021Z,6.30
2023-04-25T22:59:48.155Z,6.40
2023-04-25T23:02:58.207Z,6.00
2023-04-25T23:05:55.986Z,5.90
2023-04-25T23:09:01.374Z,6.00
2023-04-25T23:15:14.366Z,5.90
2023-04-25T23:21:16.431Z,5.90
2023-04-25T23:24:10.611Z,5.90
2023-04-25T23:27:24.786Z,5.80
2023-04-25T23:30:17.559Z,5.90
2023-04-25T23:33:11.439Z,6.10
2023-04-25T23:36:37.789Z,6.10
2023-04-25T23:39:36.129Z,6.20
2023-04-25T23:42:26.838Z,6.00
2023-04-25T23:45:23.435Z,6.00
2023-04-25T23:48:24.648Z,5.90
2023-04-25T23:51:39.840Z,6.10
2023-04-25T23:55:05.885Z,6.10
2023-04-25T23:58:08.740Z,6.20
